Time;durP1;ratioP1;P1;durP2;ratioP2;P2;SDS_P1;SDS_P2;PMS_P1;PMS_P2;Temp;Humidity;BMP_temperature;BMP_pressure;BME280_temperature;BME280_humidity;BME280_pressure;Samples;Min_cycle;Max_cycle;Signal;HPM_P1;HPM_P2
2022/03/29 00:02:14;;;;;;;56.33;28.88;;;6.50;99.90;;;;;;5074814;28;20394;-72
2022/03/29 00:04:40;;;;;;;53.08;28.27;;;6.50;99.90;;;;;;5057996;28;20078;-73
2022/03/29 00:07:05;;;;;;;52.22;29.30;;;6.50;99.90;;;;;;5075915;28;20144;-73
2022/03/29 00:09:31;;;;;;;57.40;28.40;;;6.50;99.90;;;;;;5074599;28;20029;-73
2022/03/29 00:11:56;;;;;;;48.80;28.38;;;6.50;99.90;;;;;;5075843;28;20027;-73
2022/03/29 00:14:22;;;;;;;51.75;27.65;;;6.50;99.90;;;;;;5074669;28;20028;-73
2022/03/29 00:16:47;;;;;;;47.22;26.58;;;6.40;99.90;;;;;;5074577;28;20021;-73
2022/03/29 00:19:13;;;;;;;48.88;27.02;;;6.40;99.90;;;;;;5075691;28;20031;-73
2022/03/29 00:21:39;;;;;;;47.22;26.08;;;6.40;99.90;;;;;;5075977;28;20021;-73
2022/03/29 00:24:05;;;;;;;53.65;29.00;;;6.40;99.90;;;;;;5057664;28;20029;-72
2022/03/29 00:26:31;;;;;;;55.50;29.52;;;6.30;99.90;;;;;;5075619;28;20032;-73
2022/03/29 00:28:56;;;;;;;52.88;29.40;;;6.30;99.90;;;;;;5074694;28;20025;-72
2022/03/29 00:31:22;;;;;;;55.67;30.17;;;6.30;99.90;;;;;;5075499;28;20186;-73
2022/03/29 00:33:49;;;;;;;50.85;29.00;;;6.30;99.90;;;;;;5075552;28;20028;-72
2022/03/29 00:36:16;;;;;;;53.05;28.38;;;6.20;99.90;;;;;;5075361;28;20504;-73
2022/03/29 00:38:42;;;;;;;53.78;28.88;;;6.20;99.90;;;;;;5074179;28;20390;-72
2022/03/29 00:41:08;;;;;;;55.15;29.13;;;6.20;99.90;;;;;;5074167;28;20025;-73
2022/03/29 00:43:34;;;;;;;56.33;30.17;;;6.20;99.90;;;;;;5075262;28;20028;-72
2022/03/29 00:46:00;;;;;;;62.15;32.08;;;6.10;99.90;;;;;;5075185;28;20048;-72
2022/03/29 00:48:25;;;;;;;63.72;33.60;;;6.10;99.90;;;;;;5073871;28;20025;-72
2022/03/29 00:50:52;;;;;;;63.60;32.33;;;6.10;99.90;;;;;;5073683;28;20171;-72
2022/03/29 00:53:18;;;;;;;56.90;31.98;;;6.20;99.90;;;;;;5075086;28;20016;-73
2022/03/29 00:55:45;;;;;;;55.28;30.27;;;6.20;99.90;;;;;;5073850;28;20021;-72
2022/03/29 00:58:12;;;;;;;56.20;29.33;;;6.10;99.90;;;;;;5073700;28;20093;-72
2022/03/29 01:00:38;;;;;;;54.40;29.27;;;6.10;99.90;;;;;;5057113;28;20056;-72
2022/03/29 01:03:04;;;;;;;62.67;31.45;;;6.10;99.90;;;;;;5073691;28;20082;-71
2022/03/29 01:05:31;;;;;;;55.00;29.70;;;6.10;99.90;;;;;;5073552;28;20031;-71
2022/03/29 01:07:57;;;;;;;58.08;29.55;;;6.00;99.90;;;;;;5074754;28;20021;-71
2022/03/29 01:10:24;;;;;;;58.92;32.10;;;6.00;99.90;;;;;;5074658;28;20032;-71
2022/03/29 01:12:51;;;;;;;70.63;34.60;;;6.00;99.90;;;;;;5073472;28;20429;-71
2022/03/29 01:15:18;;;;;;;65.45;35.40;;;6.00;99.90;;;;;;5074753;28;20027;-71
2022/03/29 01:17:45;;;;;;;66.55;34.67;;;6.20;99.90;;;;;;5073292;28;20074;-71
2022/03/29 01:20:18;;;;;;;68.65;36.35;;;6.40;99.90;;;;;;5073263;28;20047;-72
2022/03/29 01:22:46;;;;;;;67.85;35.78;;;6.50;99.90;;;;;;5056566;28;20180;-71
2022/03/29 01:25:17;;;;;;;72.35;36.55;;;6.60;99.90;;;;;;5074436;28;20040;-71
2022/03/29 01:27:45;;;;;;;72.18;36.78;;;6.60;99.90;;;;;;5074349;28;20023;-71
2022/03/29 01:30:11;;;;;;;68.47;36.47;;;6.70;99.90;;;;;;5072864;28;20086;-72
2022/03/29 01:32:40;;;;;;;69.47;36.45;;;6.70;99.90;;;;;;5074253;28;20517;-71
2022/03/29 01:35:07;;;;;;;69.05;36.85;;;6.70;99.90;;;;;;5074211;28;20497;-71
2022/03/29 01:37:34;;;;;;;68.60;36.20;;;6.70;99.90;;;;;;5074135;28;20021;-71
2022/03/29 01:40:05;;;;;;;74.93;38.95;;;6.70;99.90;;;;;;5072990;28;20028;-71
2022/03/29 01:42:31;;;;;;;72.53;37.60;;;6.70;99.90;;;;;;5074044;28;20500;-71
2022/03/29 01:44:56;;;;;;;72.20;37.47;;;6.70;99.90;;;;;;5074052;28;20137;-71
2022/03/29 01:47:22;;;;;;;76.68;38.97;;;6.60;99.90;;;;;;5072794;28;20032;-71
2022/03/29 01:49:47;;;;;;;66.65;35.85;;;6.50;99.90;;;;;;5072607;28;20040;-70
2022/03/29 01:52:13;;;;;;;75.13;38.95;;;6.50;99.90;;;;;;5073867;28;20391;-71
2022/03/29 01:54:39;;;;;;;74.43;38.55;;;6.50;99.90;;;;;;5073841;28;20032;-71
2022/03/29 01:57:04;;;;;;;74.32;37.60;;;6.50;99.90;;;;;;5072484;28;20024;-71
2022/03/29 02:00:30;;;;;;;73.25;38.67;;;6.50;99.90;;;;;;5073746;28;20398;-71
2022/03/29 02:02:16;;;;;;;72.53;38.85;;;6.50;99.90;;;;;;5073547;28;20021;-71
2022/03/29 02:04:41;;;;;;;76.20;39.00;;;6.50;99.90;;;;;;5072489;28;20016;-71
2022/03/29 02:07:08;;;;;;;75.95;39.78;;;6.40;99.90;;;;;;5055743;28;20502;-71
2022/03/29 02:09:33;;;;;;;71.32;37.15;;;6.50;99.90;;;;;;5072361;28;20027;-71
2022/03/29 02:11:59;;;;;;;75.15;38.55;;;6.40;99.90;;;;;;5055633;28;20017;-71
2022/03/29 02:14:25;;;;;;;73.82;37.03;;;6.40;99.90;;;;;;5055634;28;20426;-71
2022/03/29 02:16:51;;;;;;;80.93;39.85;;;;;;;;;;5055580;28;20023;-71
2022/03/29 02:19:16;;;;;;;74.55;38.90;;;6.30;99.90;;;;;;5071822;28;20413;-71
2022/03/29 02:21:42;;;;;;;73.35;39.10;;;6.30;99.90;;;;;;5073421;28;20028;-71
2022/03/29 02:24:07;;;;;;;74.85;39.95;;;6.20;99.90;;;;;;5055475;28;20024;-71
2022/03/29 02:26:33;;;;;;;75.88;38.25;;;6.20;99.90;;;;;;5072092;28;20029;-71
2022/03/29 02:28:58;;;;;;;87.88;39.53;;;6.10;99.90;;;;;;5072102;28;20043;-71
2022/03/29 02:31:24;;;;;;;82.10;40.13;;;6.00;99.90;;;;;;5072189;28;20450;-71
2022/03/29 02:33:50;;;;;;;85.40;42.22;;;6.00;99.90;;;;;;5073313;28;20105;-71
2022/03/29 02:36:16;;;;;;;95.20;45.10;;;5.90;99.90;;;;;;5073229;28;20162;-71
2022/03/29 02:38:41;;;;;;;84.03;41.30;;;5.90;99.90;;;;;;5073176;28;20032;-71
2022/03/29 02:41:07;;;;;;;88.15;43.42;;;5.90;99.90;;;;;;5073165;28;20024;-71
2022/03/29 02:43:33;;;;;;;90.53;44.22;;;5.90;99.90;;;;;;5073162;28;20028;-71
2022/03/29 02:46:00;;;;;;;92.82;43.92;;;5.80;99.90;;;;;;5055274;28;20427;-71
2022/03/29 02:48:26;;;;;;;90.95;43.08;;;5.80;99.90;;;;;;5073111;28;20025;-70
2022/03/29 02:50:51;;;;;;;97.40;46.03;;;5.80;99.90;;;;;;5054899;28;20157;-71
2022/03/29 02:53:17;;;;;;;91.60;43.78;;;5.80;99.90;;;;;;5073041;28;20448;-71
2022/03/29 02:55:42;;;;;;;92.40;45.60;;;5.70;99.90;;;;;;5073041;28;20483;-71
2022/03/29 02:58:09;;;;;;;92.85;44.70;;;5.70;99.90;;;;;;5073007;28;20389;-71
2022/03/29 03:00:34;;;;;;;99.88;46.58;;;5.70;99.90;;;;;;5072128;28;20550;-71
2022/03/29 03:03:02;;;;;;;101.28;47.05;;;5.60;99.90;;;;;;5071797;28;20111;-71
2022/03/29 03:05:28;;;;;;;99.53;45.45;;;5.60;99.90;;;;;;5071886;28;20420;-71
2022/03/29 03:07:54;;;;;;;96.20;45.55;;;5.60;99.90;;;;;;5072949;28;20056;-71
2022/03/29 03:10:20;;;;;;;104.05;48.60;;;5.50;99.90;;;;;;5072992;28;20103;-71
2022/03/29 03:12:47;;;;;;;101.32;47.95;;;5.50;99.90;;;;;;5072875;28;20108;-71
2022/03/29 03:15:16;;;;;;;95.15;46.72;;;5.60;99.90;;;;;;5054922;28;20044;-71
2022/03/29 03:17:42;;;;;;;99.90;46.05;;;5.50;99.90;;;;;;5071653;28;20112;-71
2022/03/29 03:20:08;;;;;;;97.70;44.75;;;5.50;99.90;;;;;;5054821;28;20491;-71
2022/03/29 03:22:36;;;;;;;101.82;46.95;;;5.50;99.90;;;;;;5072829;28;20021;-71
2022/03/29 03:25:02;;;;;;;101.00;47.08;;;5.40;99.90;;;;;;5072804;28;20052;-72
2022/03/29 03:27:27;;;;;;;98.18;46.05;;;5.40;99.90;;;;;;5072829;28;20017;-71
2022/03/29 03:29:53;;;;;;;102.15;46.63;;;5.40;99.90;;;;;;5071398;28;20029;-71
2022/03/29 03:32:18;;;;;;;101.55;47.58;;;5.40;99.90;;;;;;5073603;28;20025;-71
2022/03/29 03:34:44;;;;;;;99.05;46.22;;;5.40;99.90;;;;;;5075325;28;20020;-71
2022/03/29 03:37:09;;;;;;;98.85;46.17;;;5.40;99.90;;;;;;5075313;28;20440;-71
2022/03/29 03:39:37;;;;;;;100.35;46.03;;;5.30;99.90;;;;;;5076302;28;20433;-71
2022/03/29 03:42:04;;;;;;;99.30;46.40;;;5.30;99.90;;;;;;5075210;28;20044;-72
2022/03/29 03:44:29;;;;;;;104.32;47.95;;;5.20;99.90;;;;;;5075082;28;20433;-71
2022/03/29 03:46:55;;;;;;;101.53;48.83;;;5.20;99.90;;;;;;5074949;28;20016;-71
2022/03/29 03:49:21;;;;;;;100.63;46.53;;;5.20;99.90;;;;;;5074792;28;20059;-71
2022/03/29 03:51:46;;;;;;;93.75;45.97;;;5.20;99.90;;;;;;5075018;28;20074;-71
2022/03/29 03:54:12;;;;;;;95.32;44.55;;;5.10;99.90;;;;;;5074862;28;20394;-71
2022/03/29 03:56:38;;;;;;;96.65;46.42;;;5.10;99.90;;;;;;5076139;28;20060;-71
2022/03/29 03:59:04;;;;;;;101.25;46.38;;;5.10;99.90;;;;;;5074697;28;20079;-71
2022/03/29 04:01:29;;;;;;;113.15;50.45;;;5.00;99.90;;;;;;5076059;28;20020;-71
2022/03/29 04:03:55;;;;;;;110.60;47.25;;;5.00;99.90;;;;;;5074808;28;20031;-71
2022/03/29 04:06:21;;;;;;;113.70;48.30;;;5.10;99.90;;;;;;5074638;28;20406;-71
2022/03/29 04:08:46;;;;;;;109.95;48.85;;;5.20;99.90;;;;;;5075887;28;20027;-71
2022/03/29 04:11:12;;;;;;;109.97;50.25;;;5.30;99.90;;;;;;5074678;28;20020;-71
2022/03/29 04:13:37;;;;;;;112.45;49.35;;;5.30;99.90;;;;;;5074699;28;20390;-71
2022/03/29 04:16:03;;;;;;;113.97;49.53;;;5.30;99.90;;;;;;5057858;28;20016;-71
2022/03/29 04:18:29;;;;;;;109.82;50.10;;;5.30;99.90;;;;;;5075790;28;20031;-71
2022/03/29 04:20:55;;;;;;;112.88;49.22;;;5.30;99.90;;;;;;5075680;28;20028;-72
2022/03/29 04:23:20;;;;;;;107.25;48.67;;;5.30;99.90;;;;;;5074558;28;20099;-71
2022/03/29 04:25:46;;;;;;;114.65;51.40;;;5.40;99.90;;;;;;5075569;28;20027;-71
2022/03/29 04:28:12;;;;;;;111.03;50.53;;;5.40;99.90;;;;;;5074415;28;20042;-71
2022/03/29 04:30:37;;;;;;;117.60;52.50;;;5.40;99.90;;;;;;5075433;28;20025;-71
2022/03/29 04:33:03;;;;;;;124.60;50.55;;;5.40;99.90;;;;;;5075507;28;20033;-71
2022/03/29 04:35:28;;;;;;;118.00;51.00;;;5.40;99.90;;;;;;5075378;28;20453;-71
2022/03/29 04:37:54;;;;;;;115.00;49.97;;;5.40;99.90;;;;;;5074182;28;20021;-72
2022/03/29 04:40:20;;;;;;;120.53;52.08;;;5.40;99.90;;;;;;5073968;28;20025;-72
2022/03/29 04:42:49;;;;;;;123.65;52.08;;;5.40;99.90;;;;;;5074943;28;20099;-72
2022/03/29 04:45:16;;;;;;;117.78;52.83;;;5.40;99.90;;;;;;5075214;28;20463;-72
2022/03/29 04:47:43;;;;;;;123.35;54.05;;;5.40;99.90;;;;;;5075179;28;20013;-72
2022/03/29 04:50:11;;;;;;;127.45;53.80;;;5.40;99.90;;;;;;5057150;28;20272;-72
2022/03/29 04:52:38;;;;;;;125.13;54.03;;;5.40;99.90;;;;;;5073868;28;20027;-72
2022/03/29 04:55:04;;;;;;;118.43;50.90;;;5.50;99.90;;;;;;5075025;28;20028;-72
2022/03/29 04:57:30;;;;;;;120.78;50.53;;;5.50;99.90;;;;;;5075004;28;20070;-72
2022/03/29 04:59:56;;;;;;;117.60;50.47;;;5.60;99.90;;;;;;5073739;28;20032;-72
2022/03/29 05:02:23;;;;;;;119.20;50.95;;;5.60;99.90;;;;;;5074821;28;20032;-72
2022/03/29 05:04:49;;;;;;;117.55;51.60;;;5.60;99.90;;;;;;5073725;28;20017;-72
2022/03/29 05:07:15;;;;;;;122.10;51.47;;;5.60;99.90;;;;;;5073597;28;20020;-72
2022/03/29 05:09:41;;;;;;;117.78;52.13;;;5.70;99.90;;;;;;5074745;28;20028;-71
2022/03/29 05:12:06;;;;;;;117.18;51.08;;;5.80;99.90;;;;;;5057132;28;20032;-71
2022/03/29 05:14:33;;;;;;;117.20;51.58;;;5.80;99.90;;;;;;5073533;28;20553;-71
2022/03/29 05:16:59;;;;;;;129.43;52.83;;;5.80;99.90;;;;;;5074682;28;20081;-71
2022/03/29 05:19:24;;;;;;;116.55;50.67;;;5.80;99.90;;;;;;5074575;28;20107;-72
2022/03/29 05:21:50;;;;;;;111.63;51.65;;;5.80;99.90;;;;;;5073234;28;20074;-71
2022/03/29 05:24:15;;;;;;;118.22;52.97;;;5.90;99.90;;;;;;5073303;28;20024;-71
2022/03/29 05:26:41;;;;;;;119.40;52.55;;;5.90;99.90;;;;;;5073197;28;20032;-71
2022/03/29 05:29:06;;;;;;;120.25;53.00;;;5.90;99.90;;;;;;5074301;28;20028;-71
2022/03/29 05:31:32;;;;;;;121.35;53.17;;;5.90;99.90;;;;;;5074357;28;20024;-72
2022/03/29 05:33:58;;;;;;;117.60;52.55;;;5.90;99.90;;;;;;5073055;28;20029;-71
2022/03/29 05:36:24;;;;;;;119.32;51.88;;;5.90;99.90;;;;;;5074214;28;20048;-72
2022/03/29 05:38:51;;;;;;;127.60;54.22;;;6.00;99.90;;;;;;5074052;28;20059;-72
2022/03/29 05:41:20;;;;;;;120.70;53.92;;;5.90;99.90;;;;;;5074139;28;20475;-71
2022/03/29 05:43:47;;;;;;;113.78;51.28;;;5.90;99.90;;;;;;5074054;28;20104;-71
2022/03/29 05:48:59;;;;;;;122.82;53.83;;;6.00;99.90;;;;;;5073567;28;20079;-72
2022/03/29 05:51:27;;;;;;;123.35;53.08;;;6.00;99.90;;;;;;5073993;28;20037;-71
2022/03/29 05:53:54;;;;;;;133.70;57.03;;;6.10;99.90;;;;;;5071820;28;20027;-72
2022/03/29 05:56:20;;;;;;;134.88;56.47;;;6.10;99.90;;;;;;5073720;28;20077;-72
2022/03/29 05:58:46;;;;;;;143.48;57.38;;;6.10;99.90;;;;;;5072456;28;20016;-71
2022/03/29 06:01:12;;;;;;;142.23;57.30;;;6.20;99.90;;;;;;5072415;28;20040;-72
2022/03/29 06:03:38;;;;;;;130.73;55.13;;;6.30;99.90;;;;;;5073678;28;20017;-72
2022/03/29 06:06:03;;;;;;;145.07;58.65;;;6.30;99.90;;;;;;5073593;28;20445;-72
2022/03/29 06:08:29;;;;;;;135.95;57.22;;;6.20;99.90;;;;;;5073673;28;20085;-72
2022/03/29 06:10:55;;;;;;;137.55;60.70;;;6.20;99.90;;;;;;5073635;28;20028;-72
2022/03/29 06:13:21;;;;;;;145.32;59.58;;;6.30;99.90;;;;;;5072163;28;20025;-72
2022/03/29 06:15:47;;;;;;;142.10;57.88;;;6.30;99.90;;;;;;5069905;28;20020;-72
2022/03/29 06:18:12;;;;;;;148.18;56.53;;;6.30;99.90;;;;;;5073088;28;20032;-72
2022/03/29 06:20:38;;;;;;;145.90;60.85;;;6.30;99.90;;;;;;5071937;28;20479;-72
2022/03/29 06:23:04;;;;;;;144.18;58.45;;;6.20;99.90;;;;;;5071734;28;20029;-72
2022/03/29 06:25:32;;;;;;;142.02;57.00;;;6.30;99.90;;;;;;5054817;28;20048;-72
2022/03/29 06:27:57;;;;;;;144.57;56.63;;;6.30;99.90;;;;;;5073033;28;20021;-72
2022/03/29 06:30:23;;;;;;;147.30;57.00;;;6.30;99.90;;;;;;5071724;28;20036;-71
2022/03/29 06:32:50;;;;;;;146.65;58.33;;;6.30;99.90;;;;;;5054914;28;20067;-71
2022/03/29 06:35:21;;;;;;;134.88;57.13;;;6.30;99.90;;;;;;5072133;28;20020;-72
2022/03/29 06:37:47;;;;;;;145.00;55.80;;;6.40;99.90;;;;;;5070011;28;20029;-72
2022/03/29 06:40:13;;;;;;;136.88;57.22;;;6.40;99.90;;;;;;5072771;28;20036;-72
2022/03/29 06:42:39;;;;;;;142.32;57.67;;;;;;;;;;5054370;28;20021;-72
2022/03/29 06:45:05;;;;;;;149.43;57.00;;;6.40;99.90;;;;;;5072433;28;20386;-72
2022/03/29 06:47:32;;;;;;;142.50;58.05;;;6.40;99.90;;;;;;5072920;28;20211;-72
2022/03/29 06:49:57;;;;;;;145.85;56.63;;;6.40;99.90;;;;;;5071653;28;20056;-72
2022/03/29 06:52:26;;;;;;;147.98;57.08;;;6.40;99.90;;;;;;5071834;28;20486;-72
2022/03/29 06:54:52;;;;;;;133.43;54.63;;;6.40;99.90;;;;;;5071628;28;20035;-72
2022/03/29 06:57:17;;;;;;;127.15;51.42;;;6.40;99.90;;;;;;5071651;28;20380;-72
2022/03/29 06:59:43;;;;;;;126.70;53.42;;;6.40;99.90;;;;;;5071660;28;20032;-72
2022/03/29 07:02:08;;;;;;;122.50;53.20;;;6.40;99.90;;;;;;5072903;28;20021;-72
2022/03/29 07:04:34;;;;;;;120.57;52.13;;;6.50;99.90;;;;;;5071760;28;20433;-72
2022/03/29 07:07:00;;;;;;;119.65;53.78;;;6.50;99.90;;;;;;5075178;28;20021;-72
2022/03/29 07:12:12;;;;;;;125.28;53.67;;;6.60;99.90;;;;;;5075636;28;20025;-73
2022/03/29 07:14:37;;;;;;;119.25;51.78;;;6.60;99.90;;;;;;5075705;28;20463;-72
2022/03/29 07:17:05;;;;;;;112.95;51.70;;;6.60;99.90;;;;;;5058828;28;20052;-72
2022/03/29 07:19:31;;;;;;;111.22;49.95;;;6.60;99.90;;;;;;5076759;28;20023;-72
2022/03/29 07:21:56;;;;;;;110.90;49.60;;;6.60;99.90;;;;;;5076800;28;20020;-72
2022/03/29 07:24:22;;;;;;;109.78;49.92;;;6.60;99.90;;;;;;5058660;28;20471;-72
2022/03/29 07:26:48;;;;;;;105.63;47.95;;;6.60;99.90;;;;;;5075414;28;20029;-72
2022/03/29 07:29:13;;;;;;;110.55;48.72;;;6.60;99.90;;;;;;5058725;28;20035;-72
2022/03/29 07:31:39;;;;;;;114.00;49.65;;;6.60;99.90;;;;;;5076453;28;20039;-72
2022/03/29 07:34:05;;;;;;;108.55;50.17;;;6.60;99.90;;;;;;5058519;28;20020;-72
2022/03/29 07:36:31;;;;;;;106.10;47.10;;;6.60;99.90;;;;;;5075204;28;20020;-72
2022/03/29 07:38:56;;;;;;;104.10;47.60;;;6.60;99.90;;;;;;5075010;28;20035;-72
2022/03/29 07:41:22;;;;;;;114.82;51.17;;;6.70;99.90;;;;;;5058679;28;20052;-72
2022/03/29 07:43:47;;;;;;;111.45;48.78;;;6.70;99.90;;;;;;5074983;28;20352;-72
2022/03/29 07:46:13;;;;;;;108.95;49.17;;;6.80;99.90;;;;;;5074886;28;20070;-72
2022/03/29 07:48:39;;;;;;;102.55;48.08;;;6.80;99.90;;;;;;5075983;28;20021;-72
2022/03/29 07:51:05;;;;;;;100.03;47.55;;;6.80;99.90;;;;;;5074993;28;20024;-72
2022/03/29 07:53:31;;;;;;;110.20;48.47;;;6.80;99.90;;;;;;5076102;28;20024;-72
2022/03/29 07:55:57;;;;;;;110.43;48.30;;;6.70;99.90;;;;;;5074831;28;20392;-72
2022/03/29 07:58:23;;;;;;;109.05;48.05;;;6.70;99.90;;;;;;5074709;28;20037;-72
2022/03/29 08:00:50;;;;;;;117.63;50.90;;;6.70;99.90;;;;;;5075919;28;20024;-72
2022/03/29 08:03:17;;;;;;;101.05;46.92;;;6.80;99.90;;;;;;5075905;28;20025;-72
2022/03/29 08:05:44;;;;;;;101.68;47.00;;;6.80;99.90;;;;;;5058015;28;20024;-72
2022/03/29 08:08:13;;;;;;;98.68;45.38;;;6.80;99.90;;;;;;5074504;28;20043;-72
2022/03/29 08:10:39;;;;;;;95.03;45.38;;;6.80;99.90;;;;;;5074501;28;20017;-72
2022/03/29 08:13:07;;;;;;;95.28;44.88;;;6.80;99.90;;;;;;5074561;28;20082;-72
2022/03/29 08:15:35;;;;;;;92.05;45.20;;;6.90;99.90;;;;;;5074493;28;20056;-72
2022/03/29 08:18:01;;;;;;;88.00;43.10;;;7.00;99.90;;;;;;5073602;28;20425;-72
2022/03/29 08:20:29;;;;;;;91.22;42.33;;;7.10;99.90;;;;;;5074225;28;20024;-72
2022/03/29 08:22:59;;;;;;;89.22;42.88;;;7.10;99.90;;;;;;5075445;28;20532;-72
2022/03/29 08:25:24;;;;;;;90.95;43.30;;;7.10;99.90;;;;;;5075559;28;20119;-73
2022/03/29 08:27:50;;;;;;;92.30;44.75;;;7.00;99.90;;;;;;5074292;28;20101;-73
2022/03/29 08:30:16;;;;;;;95.82;44.55;;;7.10;99.90;;;;;;5074289;28;20107;-73
2022/03/29 08:32:42;;;;;;;93.72;46.30;;;7.20;99.90;;;;;;5074082;28;20035;-72
2022/03/29 08:35:10;;;;;;;93.10;44.15;;;7.10;99.90;;;;;;5074162;28;20551;-72
2022/03/29 08:37:36;;;;;;;94.82;44.60;;;7.10;99.90;;;;;;5075254;28;20179;-73
2022/03/29 08:40:05;;;;;;;87.72;43.22;;;7.20;99.90;;;;;;5057385;28;20024;-72
2022/03/29 08:42:31;;;;;;;88.35;43.28;;;7.20;99.90;;;;;;5075264;28;20019;-73
2022/03/29 08:44:57;;;;;;;89.15;42.60;;;7.20;99.90;;;;;;5073755;28;20017;-72
2022/03/29 08:47:25;;;;;;;92.57;43.58;;;7.30;99.90;;;;;;5073720;28;20024;-72
2022/03/29 08:49:51;;;;;;;87.28;42.33;;;7.40;99.90;;;;;;5074846;28;20056;-73
2022/03/29 08:52:18;;;;;;;92.32;42.40;;;7.40;99.90;;;;;;5073873;28;20025;-72
2022/03/29 08:54:44;;;;;;;88.47;42.97;;;7.50;99.90;;;;;;5074879;28;20390;-72
2022/03/29 08:57:11;;;;;;;79.55;41.40;;;7.40;99.90;;;;;;5075001;28;20031;-72
2022/03/29 08:59:36;;;;;;;83.50;42.30;;;7.40;99.90;;;;;;5074740;28;20021;-72
2022/03/29 09:02:12;;;;;;;84.53;40.33;;;7.50;99.90;;;;;;5057028;28;20382;-72
2022/03/29 09:04:38;;;;;;;74.38;38.70;;;7.70;99.90;;;;;;5074764;28;20021;-72
2022/03/29 09:07:04;;;;;;;75.43;40.20;;;7.70;99.90;;;;;;5074731;28;20028;-72
2022/03/29 09:09:36;;;;;;;75.15;39.75;;;7.90;99.90;;;;;;5074680;28;20107;-72
2022/03/29 09:17:45;;;;;;;75.85;38.67;;;7.90;99.90;;;;;;5110959;27;20755;-70
2022/03/29 09:20:21;;;;;;;68.30;37.40;;;7.70;99.90;;;;;;5092588;28;20062;-71
2022/03/29 09:25:35;;;;;;;67.60;34.95;;;7.70;99.90;;;;;;5110812;27;20533;-72
2022/03/29 09:28:04;;;;;;;71.30;36.50;;;8.00;99.90;;;;;;5110878;28;20077;-71
2022/03/29 09:30:38;;;;;;;69.78;36.95;;;8.00;99.90;;;;;;5109533;28;20026;-71
2022/03/29 09:33:07;;;;;;;69.95;36.65;;;8.00;99.90;;;;;;5109388;28;20106;-72
2022/03/29 09:35:36;;;;;;;62.83;35.17;;;7.80;99.90;;;;;;5110544;28;20492;-71
2022/03/29 09:38:37;;;;;;;63.85;35.88;;;8.00;99.90;;;;;;5110718;28;20052;-71
2022/03/29 09:41:05;;;;;;;72.72;38.20;;;7.90;99.90;;;;;;5110437;28;20432;-71
2022/03/29 09:43:32;;;;;;;73.65;37.55;;;8.00;99.90;;;;;;5110530;28;20020;-72
2022/03/29 09:46:00;;;;;;;70.35;36.35;;;7.90;99.90;;;;;;5110499;28;20465;-71
2022/03/29 09:48:37;;;;;;;65.55;34.00;;;7.80;99.90;;;;;;5110428;28;20023;-72
2022/03/29 09:51:15;;;;;;;68.82;35.72;;;7.80;99.90;;;;;;5109185;28;20024;-71
2022/03/29 09:54:02;;;;;;;67.18;35.25;;;8.10;99.90;;;;;;5108909;28;20031;-72
2022/03/29 09:56:30;;;;;;;61.50;33.72;;;8.20;99.90;;;;;;5108935;28;20024;-72
2022/03/29 09:59:16;;;;;;;61.67;35.30;;;8.20;99.90;;;;;;5110216;28;20024;-72
2022/03/29 10:01:57;;;;;;;63.53;33.95;;;8.30;99.90;;;;;;5126000;28;20028;-72
2022/03/29 10:04:25;;;;;;;63.67;35.45;;;8.20;99.90;;;;;;5108852;28;20431;-72
2022/03/29 10:06:54;;;;;;;60.95;34.85;;;8.50;99.90;;;;;;5110102;28;20072;-72
2022/03/29 10:09:30;;;;;;;66.68;35.70;;;8.80;99.90;;;;;;5110077;28;20449;-72
2022/03/29 10:12:00;;;;;;;63.00;35.65;;;9.00;99.90;;;;;;5110075;28;20433;-73
2022/03/29 10:14:27;;;;;;;67.30;37.80;;;9.30;99.90;;;;;;5109980;28;20024;-73
2022/03/29 10:16:54;;;;;;;70.32;37.22;;;9.40;99.90;;;;;;5109902;28;20016;-73
2022/03/29 10:19:20;;;;;;;69.78;37.50;;;9.60;99.90;;;;;;5109966;28;20028;-73
2022/03/29 10:21:47;;;;;;;69.20;37.08;;;;;;;;;;5109872;28;20378;-73
2022/03/29 10:24:13;;;;;;;68.60;37.10;;;;;;;;;;5109613;28;20572;-73
2022/03/29 10:26:41;;;;;;;67.93;35.33;;;;;;;;;;5109721;28;20020;-73
2022/03/29 10:29:08;;;;;;;76.90;39.75;;;;;;;;;;5109740;28;20039;-73
2022/03/29 10:31:36;;;;;;;78.00;38.50;;;;;;;;;;5109782;28;20408;-73
2022/03/29 10:34:10;;;;;;;80.88;38.80;;;;;;;;;;5108519;28;20367;-73
2022/03/29 10:36:59;;;;;;;78.80;40.42;;;;;;;;;;5096886;28;20072;-73
2022/03/29 10:39:47;;;;;;;70.78;37.45;;;10.70;99.90;;;;;;5096097;28;20032;-73
2022/03/29 10:42:36;;;;;;;68.07;37.95;;;11.00;99.90;;;;;;5094809;28;20486;-73
2022/03/29 10:45:22;;;;;;;63.10;34.35;;;11.20;99.90;;;;;;5095887;28;20055;-73
2022/03/29 10:48:09;;;;;;;60.80;33.22;;;11.00;99.90;;;;;;5095774;28;20047;-73
2022/03/29 10:50:53;;;;;;;59.53;34.38;;;10.30;99.90;;;;;;5094645;28;20024;-73
2022/03/29 10:53:36;;;;;;;61.65;35.03;;;10.30;99.90;;;;;;5094552;28;20367;-73
2022/03/29 10:56:20;;;;;;;62.08;34.40;;;10.40;99.90;;;;;;5094694;28;20028;-73
2022/03/29 10:59:08;;;;;;;59.85;35.08;;;10.60;99.90;;;;;;5094396;28;20312;-73
2022/03/29 11:01:35;;;;;;;54.40;32.35;;;10.50;99.90;;;;;;5095562;28;20442;-73
2022/03/29 11:04:04;;;;;;;50.47;31.67;;;11.20;99.90;;;;;;5094055;28;20032;-73
2022/03/29 11:06:30;;;;;;;52.28;31.25;;;12.10;99.90;;;;;;5095417;28;20020;-73
2022/03/29 11:09:06;;;;;;;51.33;31.88;;;12.50;99.90;;;;;;5094114;28;20035;-74
2022/03/29 11:11:46;;;;;;;56.97;32.25;;;12.80;99.90;;;;;;5094057;28;20051;-73
2022/03/29 11:19:48;;;;;;;49.45;31.50;;;12.90;99.90;;;;;;5110995;27;20322;-72
2022/03/29 11:25:10;;;;;;;54.85;33.08;;;12.50;99.90;;;;;;5110900;27;20343;-72
2022/03/29 11:27:38;;;;;;;47.85;31.60;;;12.80;99.90;;;;;;5109736;28;20027;-72
2022/03/29 11:30:07;;;;;;;52.78;31.85;;;12.10;99.90;;;;;;5110775;28;20047;-72
2022/03/29 11:32:34;;;;;;;52.80;31.42;;;11.80;99.90;;;;;;5110429;28;20489;-72
2022/03/29 11:35:02;;;;;;;52.97;32.75;;;11.40;99.90;;;;;;5092598;28;20500;-72
2022/03/29 11:37:29;;;;;;;52.55;33.25;;;11.10;99.90;;;;;;5092342;28;20031;-72
2022/03/29 11:39:56;;;;;;;51.63;33.03;;;11.40;99.90;;;;;;5109117;28;20477;-72
2022/03/29 11:42:22;;;;;;;56.35;31.38;;;11.80;99.90;;;;;;5109105;28;20073;-72
2022/03/29 11:44:48;;;;;;;55.45;31.88;;;11.70;99.90;;;;;;5092227;28;20067;-72
2022/03/29 11:47:14;;;;;;;48.10;29.75;;;11.20;99.90;;;;;;5110545;28;20446;-72
2022/03/29 11:49:42;;;;;;;51.17;30.60;;;10.90;99.90;;;;;;5110410;28;20057;-72
2022/03/29 11:52:13;;;;;;;50.42;30.30;;;10.70;99.90;;;;;;5109259;28;20451;-72
2022/03/29 11:54:51;;;;;;;51.67;31.08;;;10.80;99.90;;;;;;5110423;28;20062;-72
2022/03/29 11:57:21;;;;;;;46.10;29.13;;;11.00;99.90;;;;;;5092462;28;20016;-72
2022/03/29 11:59:48;;;;;;;46.88;29.70;;;11.10;99.90;;;;;;5108798;28;20472;-73
2022/03/29 12:02:14;;;;;;;55.15;32.00;;;11.20;99.90;;;;;;5092060;28;20542;-72
2022/03/29 12:04:40;;;;;;;54.47;31.45;;;11.10;99.90;;;;;;5110168;28;20386;-72
2022/03/29 12:07:06;;;;;;;53.90;32.00;;;11.30;99.90;;;;;;5091995;28;20020;-72
2022/03/29 12:09:31;;;;;;;52.63;31.35;;;11.30;99.90;;;;;;5110228;28;20084;-73
2022/03/29 12:12:00;;;;;;;54.47;30.35;;;11.50;99.90;;;;;;5092104;28;20102;-73
2022/03/29 12:14:26;;;;;;;50.03;30.52;;;11.60;99.90;;;;;;5109896;28;20023;-73
2022/03/29 12:16:58;;;;;;;53.67;32.35;;;11.90;99.90;;;;;;5109738;28;20502;-73
2022/03/29 12:19:26;;;;;;;54.17;30.95;;;12.10;99.90;;;;;;5108668;28;20030;-73
2022/03/29 12:21:57;;;;;;;53.28;29.88;;;11.80;99.90;;;;;;5108612;28;20084;-73
2022/03/29 12:24:25;;;;;;;47.15;30.50;;;12.10;99.90;;;;;;5104952;28;20405;-72
2022/03/29 12:26:55;;;;;;;51.30;32.25;;;11.70;99.90;;;;;;5088072;28;20030;-73
2022/03/29 12:29:24;;;;;;;52.40;30.77;;;11.40;99.90;;;;;;5089292;28;20024;-73
2022/03/29 12:31:50;;;;;;;49.35;30.98;;;11.50;99.90;;;;;;5087851;28;20032;-72
2022/03/29 12:34:23;;;;;;;54.55;31.92;;;11.80;99.90;;;;;;5088418;28;20100;-73
2022/03/29 12:36:53;;;;;;;47.78;30.55;;;11.90;99.90;;;;;;5075431;28;20031;-73
2022/03/29 12:39:19;;;;;;;47.47;29.10;;;11.80;99.90;;;;;;5074431;28;20040;-73
2022/03/29 12:41:54;;;;;;;48.80;30.65;;;11.80;99.90;;;;;;5074331;28;20031;-73
2022/03/29 12:44:44;;;;;;;48.22;29.42;;;11.70;99.90;;;;;;5074216;28;20494;-73
2022/03/29 12:47:11;;;;;;;52.67;31.38;;;11.90;99.90;;;;;;5075475;28;20096;-73
2022/03/29 12:49:38;;;;;;;48.00;29.30;;;12.10;99.90;;;;;;5074227;28;20013;-73
2022/03/29 12:52:07;;;;;;;49.55;29.83;;;12.40;99.90;;;;;;5075485;28;20016;-74
2022/03/29 12:54:47;;;;;;;51.20;30.65;;;12.50;99.90;;;;;;5075411;28;20032;-73
2022/03/29 12:57:15;;;;;;;48.47;30.38;;;12.50;99.90;;;;;;5075422;28;20491;-73
2022/03/29 12:59:44;;;;;;;45.30;28.25;;;12.60;99.90;;;;;;5074072;28;20502;-74